Terminal Aerodrome Forecast
Issued by NWS

Home | Current Version | Previous Version | Text Only | Print | Product List | Glossary On
Versions: 1 2 3 4 5 6 7 8 9 10 11 12 13 14 15 16 17 18 19 20 21 22
000
FTUS41 KOKX 221400 AAA
TAFSWF
TAF AMD
KSWF 221430Z 2215/2318 29014G24KT P6SM SCT030
     FM230000 30006KT P6SM FEW035
     FM230600 VRB03KT P6SM SKC
      AMD NOT SKED=

USA.gov is the U.S. government's official web portal to all federal, state and local government web resources and services.